Pag — 9A2798 — position and weather

sailwx.info

Track history (hours):
 
Tides and Currents Weather Stations Pressure Air Temp Water Temp Dewpoint Dewpoint Depression Visibility Wind Speed Wind Dir Waves Ship Positions

Pag

Last reported at 2017-Sep-17 14:21 UTC. Time now 2017-Sep-26 01:50 UTC.
Position N 29°23' W 094°48'.
Warning: this ship's position is 8 days out of date.

Length 183 m; draft 11.8 m.

Type: Tanker. MMSI: 238009000.

Date/timePositionNaut miles runAvg speedWind from/ knotsBaromVisibWave heightAir tempDewpointWater temp
2017-Sep-17 14:21N 29°23' W 094°48'410.6
2017-Sep-17 14:00N 29°26' W 094°50'510.0
2017-Sep-17 13:30N 29°31' W 094°53'5 9.7
2017-Sep-17 13:00N 29°35' W 094°56'5 9.7
2017-Sep-17 12:30N 29°39' W 094°58'4 7.8
2017-Sep-17 12:00N 29°42' W 095°01'3 6.0
2017-Sep-17 11:30N 29°44' W 095°03'2 4.8
2017-Sep-17 11:00N 29°45' W 095°06'3 5.8
2017-Sep-17 10:30N 29°44' W 095°09'  
2017-Sep-14 01:54N 29°45' W 095°12'0 0.4
2017-Sep-14 01:30N 29°44' W 095°12'2 4.4
2017-Sep-14 01:00N 29°45' W 095°10'3 6.4
2017-Sep-14 00:30N 29°45' W 095°06'3 6.1
2017-Sep-14 00:00N 29°44' W 095°03'4 7.2
2017-Sep-13 23:30N 29°42' W 094°59'510.7
2017-Sep-13 23:00N 29°37' W 094°57'611.1
2017-Sep-13 22:30N 29°32' W 094°54'510.8
2017-Sep-13 22:00N 29°27' W 094°51'510.6
2017-Sep-13 21:30N 29°22' W 094°48'  
Track history (hours):
 
Tides and Currents Weather Stations Pressure Air Temp Water Temp Dewpoint Dewpoint Depression Visibility Wind Speed Wind Dir Waves Ship Positions

Pag

Last reported at 2017-Sep-17 14:21 UTC. Time now 2017-Sep-26 01:50 UTC.
Position N 29°23' W 094°48'.
Warning: this ship's position is 8 days out of date.

Length 183 m; draft 11.8 m.

Type: Tanker. MMSI: 238009000.

Date/timePositionNaut miles runAvg speedWind from/ knotsBaromVisibWave heightAir tempDewpointWater temp
2017-Sep-17 14:21N 29°23' W 094°48'410.6
2017-Sep-17 14:00N 29°26' W 094°50'510.0
2017-Sep-17 13:30N 29°31' W 094°53'5 9.7
2017-Sep-17 13:00N 29°35' W 094°56'5 9.7
2017-Sep-17 12:30N 29°39' W 094°58'4 7.8
2017-Sep-17 12:00N 29°42' W 095°01'3 6.0
2017-Sep-17 11:30N 29°44' W 095°03'2 4.8
2017-Sep-17 11:00N 29°45' W 095°06'3 5.8
2017-Sep-17 10:30N 29°44' W 095°09'  
2017-Sep-14 01:54N 29°45' W 095°12'0 0.4
2017-Sep-14 01:30N 29°44' W 095°12'2 4.4
2017-Sep-14 01:00N 29°45' W 095°10'3 6.4
2017-Sep-14 00:30N 29°45' W 095°06'3 6.1
2017-Sep-14 00:00N 29°44' W 095°03'4 7.2
2017-Sep-13 23:30N 29°42' W 094°59'510.7
2017-Sep-13 23:00N 29°37' W 094°57'611.1
2017-Sep-13 22:30N 29°32' W 094°54'510.8
2017-Sep-13 22:00N 29°27' W 094°51'510.6
2017-Sep-13 21:30N 29°22' W 094°48'  

Dump ship's entire track history